Terminal Aerodrome Forecast
Issued by NWS

Home | Current Version | Previous Version | Text Only | Print | Product List | Glossary On
Versions: 1 2 3 4 5 6 7 8 9 10 11 12 13
000
FTUS45 KABQ 161100
TAFAEG
TAF
KAEG 161139Z 1612/1712 VRB05KT P6SM SCT025 BKN040
     FM161800 14007KT P6SM SCT040 BKN120
     FM162200 VRB15G25KT P6SM VCTS SCT040 BKN060CB
     FM170100 VRB05KT P6SM VCSH SCT040 BKN090=

USA.gov is the U.S. government's official web portal to all federal, state and local government web resources and services.